METAR AND TAF INFORMATION
METAR FOR UTTT
ADDS - METARS form results

(0717 UTC 22 January 2019)
Data provider http://aviationweather.gov/metar/data/
 
METAR text: UTTT 220700Z 18004KT 130V230 7000 NSC 04/M03 Q1021 R08R/CLRD70 NOSIG
Conditions at: UTTT (TASKENT/YUZNI , UZ) observed 0700 UTC 22 January 2019
Temperature: 4.0°C (39°F)
Dewpoint: -3.0°C (27°F) [RH = 60%]
Pressure (altimeter): 30.15 inches Hg (1021.0 mb)
Winds: from the S (180 degrees) at 5 MPH (4 knots; 2.1 m/s)
Visibility: 4 miles ( 7 km)
Ceiling: at least 12,000 feet AGL
Clouds: sky clear below 12,000 feet AGL
Weather: no significant weather observed at this time

METAR text: UTTT 220630Z VRB02KT 7000 NSC 03/M05 Q1022 R08R/CLRD70 NOSIG
Conditions at: UTTT (TASKENT/YUZNI , UZ) observed 0630 UTC 22 January 2019
Temperature: 3.0°C (37°F)
Dewpoint: -5.0°C (23°F) [RH = 56%]
Pressure (altimeter): 30.18 inches Hg (1022.0 mb)
Winds: variable direction winds at 2 MPH (2 knots; 1.0 m/s)
Visibility: 4 miles ( 7 km)
Ceiling: at least 12,000 feet AGL
Clouds: sky clear below 12,000 feet AGL
Weather: no significant weather observed at this time

Forecast for: UTTT (TASKENT/YUZNI , UZ)
Text: TAF UTTT 220500Z 2206/2306 08010KT 7000 NSC
Forecast period: 0600 UTC 22 January 2019 to 0600 UTC 23 January 2019
Forecast type: FROM: standard forecast or significant change
Winds: from the E (80 degrees) at 12 MPH (10 knots; 5.1 m/s)
Visibility: 4 miles (7 km)
Ceiling: unknown
Clouds: missing
Weather: no significant weather forecast for this period
Text: TEMPO 2212/2216 2000 BR SCT005 BKN100
Forecast period: 1200 to 1600 UTC 22 January 2019
Forecast type: TEMPORARY: The following changes expected for less than half the time period
Visibility: 1.24 miles (2.00 km)
Ceiling: 10000 feet AGL
Clouds: scattered clouds at 500 feet AGL
broken clouds at 10000 feet AGL
Weather: BR  (mist)
Text: TEMPO 2216/2303 0500 FZFG BKN003
Forecast period: 1600 UTC 22 January 2019 to 0300 UTC 23 January 2019
Forecast type: TEMPORARY: The following changes expected for less than half the time period
Visibility: 0.31 miles (0.50 km)
Ceiling: 300 feet AGL
Clouds: broken clouds at 300 feet AGL
Weather: FZFG  (freezing fog)

 AIRPORT MAP

 RUNWAY INFORMATION

 AIRPORT FREQUENCIES
Type APP Name TASHKENT A Frequency 125.2 MHZ
Type ATIS Name ATIS Frequency 126.8 MHZ
Type CLD Name TASHKENT D Frequency 129.4 MHZ
Type GCA Name TASHKENT K Frequency 119.4 MHZ
Type GND Name TASHKENT G Frequency 121.7 MHZ
Type TWR Name TASHKENT T Frequency 120.4 MHZ

 AIRPORT NEAR NAVIGATION AIDS
Type NDB Name Tashkent Frequency 285 KHZ
Type NDB Name Tashkent Frequency 285 KHZ
Type VOR-DME Name Tashkent Frequency 113200 KHZ
Type NDB Name Tashkent Frequency 340 KHZ



2018 Air Astana Virtual Airline